Time;durP1;ratioP1;P1;durP2;ratioP2;P2;SDS_P1;SDS_P2;PMS_P1;PMS_P2;Temp;Humidity;BMP_temperature;BMP_pressure;BME280_temperature;BME280_humidity;BME280_pressure;Samples;Min_cycle;Max_cycle;Signal;HPM_P1;HPM_P2
2023/03/17 00:01:41;;;;;;;3.20;0.87;;;;;;;8.66;48.74;100952.50;6172399;22;97872;-51
2023/03/17 00:04:10;;;;;;;1.33;0.67;;;;;;;8.67;48.66;100938.31;6171110;22;96952;-52
2023/03/17 00:06:36;;;;;;;0.90;0.77;;;;;;;8.66;48.69;100938.78;6171485;22;96606;-51
2023/03/17 00:09:02;;;;;;;1.00;0.80;;;;;;;8.65;48.63;100937.28;6171673;22;96701;-53
2023/03/17 00:11:28;;;;;;;0.97;0.87;;;;;;;8.63;48.75;100934.25;6171451;22;97440;-50
2023/03/17 00:13:53;;;;;;;0.77;0.70;;;;;;;8.60;48.80;100935.97;6171938;22;97012;-51
2023/03/17 00:16:25;;;;;;;0.70;0.70;;;;;;;8.62;49.01;100932.75;6171263;22;96691;-51
2023/03/17 00:18:52;;;;;;;1.07;1.07;;;;;;;8.59;48.96;100934.44;6171967;22;97075;-51
2023/03/17 00:21:27;;;;;;;1.23;1.07;;;;;;;8.56;49.13;100940.84;6171487;22;96639;-50
2023/03/17 00:23:53;;;;;;;0.73;0.73;;;;;;;8.49;49.01;100943.97;6172256;22;97238;-51
2023/03/17 00:26:20;;;;;;;0.67;0.67;;;;;;;8.52;49.16;100945.75;6171349;22;96721;-51
2023/03/17 00:28:45;;;;;;;0.60;0.60;;;;;;;8.54;48.98;100948.06;6171975;22;97195;-51
2023/03/17 00:31:19;;;;;;;0.80;0.73;;;;;;;8.55;49.28;100953.06;6171328;22;97361;-51
2023/03/17 00:33:45;;;;;;;1.53;0.50;;;;;;;8.56;49.22;100946.34;6172334;22;98125;-51
2023/03/17 00:36:16;;;;;;;1.13;1.00;;;;;;;8.52;49.06;100940.28;6171527;22;97118;-51
2023/03/17 00:38:42;;;;;;;0.70;0.70;;;;;;;8.48;49.25;100931.50;6171517;22;96914;-52
2023/03/17 00:41:11;;;;;;;1.00;0.90;;;;;;;8.45;49.38;100926.97;6171574;22;97302;-51
2023/03/17 00:43:37;;;;;;;0.73;0.73;;;;;;;8.44;49.13;100932.91;6171898;22;97766;-50
2023/03/17 00:46:10;;;;;;;1.07;0.73;;;;;;;8.45;49.66;100931.69;6171979;22;96565;-52
2023/03/17 00:48:37;;;;;;;2.10;0.80;;;;;;;8.41;49.46;100931.13;6171553;22;97087;-51
2023/03/17 00:51:02;;;;;;;1.87;0.80;;;;;;;8.37;49.50;100923.06;6170762;22;96878;-51
2023/03/17 00:53:27;;;;;;;1.17;0.70;;;;;;;8.32;49.41;100918.25;6171836;22;96806;-51
2023/03/17 00:55:53;;;;;;;0.53;0.50;;;;;;;8.32;49.91;100920.22;6171568;22;100016;-51
2023/03/17 00:58:30;;;;;;;1.17;0.60;;;;;;;8.30;49.98;100920.66;6172132;22;96977;-51
2023/03/17 01:00:56;;;;;;;0.70;0.70;;;;;;;8.28;49.74;100912.16;6172373;22;97447;-51
2023/03/17 01:03:22;;;;;;;1.03;0.80;;;;;;;8.26;49.83;100914.63;6171903;22;97219;-52
2023/03/17 01:05:50;;;;;;;1.03;0.93;;;;;;;8.22;49.75;100916.75;6171381;22;97460;-51
2023/03/17 01:08:16;;;;;;;1.43;1.17;;;;;;;8.19;49.73;100918.44;6170955;22;97245;-52
2023/03/17 01:10:42;;;;;;;1.53;0.70;;;;;;;8.18;49.87;100918.94;6169130;22;96946;-53
2023/03/17 01:13:11;;;;;;;0.80;0.80;;;;;;;8.12;49.80;100918.84;6170739;22;97002;-52
2023/03/17 01:15:40;;;;;;;0.50;0.50;;;;;;;8.10;49.60;100917.78;6171836;22;97359;-51
2023/03/17 01:18:05;;;;;;;1.00;0.60;;;;;;;8.07;50.14;100910.47;6171288;22;96977;-52
2023/03/17 01:20:33;;;;;;;0.73;0.73;;;;;;;8.03;50.04;100926.34;6171235;22;103121;-50
2023/03/17 01:23:00;;;;;;;0.80;0.60;;;;;;;7.97;50.17;100900.84;6171445;22;96814;-51
2023/03/17 01:25:27;;;;;;;1.10;0.50;;;;;;;7.93;50.47;100898.25;6171353;22;96634;-51
2023/03/17 01:27:54;;;;;;;0.70;0.63;;;;;;;7.93;50.05;100911.22;6171234;22;97026;-51
2023/03/17 01:30:21;;;;;;;0.70;0.60;;;;;;;7.95;50.40;100909.50;6170538;22;99069;-51
2023/03/17 01:32:47;;;;;;;0.70;0.70;;;;;;;7.96;50.17;100911.03;6171902;22;96978;-51
2023/03/17 01:35:13;;;;;;;0.93;0.70;;;;;;;7.99;50.42;100906.59;6171948;22;96761;-51
2023/03/17 01:37:39;;;;;;;0.60;0.50;;;;;;;8.00;50.16;100906.13;6171894;22;96947;-51
2023/03/17 01:40:08;;;;;;;0.60;0.60;;;;;;;8.03;50.19;100896.22;6171620;22;97200;-51
2023/03/17 01:42:34;;;;;;;0.73;0.73;;;;;;;8.03;50.24;100904.44;6170978;22;97040;-51
2023/03/17 01:45:03;;;;;;;1.73;0.60;;;;;;;8.02;50.47;100913.88;6172161;22;97139;-51
2023/03/17 01:47:31;;;;;;;1.20;0.60;;;;;;;8.04;50.53;100900.44;6171845;22;97154;-51
2023/03/17 01:50:06;;;;;;;3.37;0.77;;;;;;;8.05;50.67;100901.97;6171551;22;97118;-51
2023/03/17 01:52:38;;;;;;;0.57;0.57;;;;;;;8.05;50.51;100875.34;6171150;22;97342;-51
2023/03/17 01:55:14;;;;;;;1.23;0.97;;;;;;;8.03;50.54;100866.06;6171000;22;96515;-51
2023/03/17 01:57:52;;;;;;;1.00;0.73;;;;;;;8.03;50.63;100850.41;6171480;22;96777;-50
2023/03/17 02:00:20;;;;;;;0.90;0.70;;;;;;;8.02;50.47;100853.59;6171470;22;97334;-50
2023/03/17 02:02:51;;;;;;;1.00;0.87;;;;;;;8.05;50.92;100855.41;6171779;22;97048;-50
2023/03/17 02:05:21;;;;;;;1.87;0.70;;;;;;;8.07;50.40;100861.94;6171975;22;97170;-51
2023/03/17 02:07:48;;;;;;;0.90;0.80;;;;;;;8.08;50.66;100868.91;6170981;22;96597;-51
2023/03/17 02:10:16;;;;;;;1.33;1.10;;;;;;;8.09;50.35;100877.88;6170149;22;96675;-51
2023/03/17 02:12:44;;;;;;;0.83;0.83;;;;;;;8.11;50.61;100881.69;6172054;22;96972;-50
2023/03/17 02:15:10;;;;;;;0.93;0.90;;;;;;;8.12;50.87;100877.72;6171112;22;97095;-50
2023/03/17 02:17:37;;;;;;;1.73;0.63;;;;;;;8.16;50.83;100877.53;6171521;22;96982;-51
2023/03/17 02:20:20;;;;;;;0.90;0.90;;;;;;;8.18;51.08;100884.06;6170538;22;96901;-50
2023/03/17 02:22:53;;;;;;;0.87;0.87;;;;;;;8.22;50.83;100881.91;6171686;22;97008;-51
2023/03/17 02:25:20;;;;;;;1.23;1.20;;;;;;;8.25;50.74;100886.47;6171514;22;96909;-53
2023/03/17 02:27:50;;;;;;;1.27;1.17;;;;;;;8.27;50.77;100883.25;6170770;22;97116;-51
2023/03/17 02:30:18;;;;;;;2.13;0.80;;;;;;;8.32;50.43;100882.63;6170820;22;97203;-51
2023/03/17 02:32:43;;;;;;;0.77;0.77;;;;;;;8.34;50.27;100871.16;6171438;22;97185;-51
2023/03/17 02:35:09;;;;;;;0.70;0.70;;;;;;;8.35;50.36;100870.69;6171404;22;96763;-50
2023/03/17 02:37:35;;;;;;;1.13;1.03;;;;;;;8.37;50.50;100881.16;6171656;22;96749;-52
2023/03/17 02:40:01;;;;;;;0.80;0.80;;;;;;;8.36;50.63;100869.47;6170933;22;97162;-51
2023/03/17 02:42:27;;;;;;;2.03;1.27;;;;;;;8.36;50.35;100869.47;6143583;22;98060;-51
2023/03/17 02:44:53;;;;;;;1.30;0.70;;;;;;;8.39;50.58;100871.25;6170918;22;97074;-51
2023/03/17 02:47:18;;;;;;;1.10;1.00;;;;;;;8.43;50.57;100874.56;6170726;22;98359;-51
2023/03/17 02:49:44;;;;;;;1.10;1.00;;;;;;;8.44;50.67;100873.34;6170184;22;97274;-52
2023/03/17 02:52:10;;;;;;;2.17;1.20;;;;;;;8.45;50.42;100879.59;6171299;22;97190;-51
2023/03/17 02:54:36;;;;;;;1.27;1.17;;;;;;;8.46;50.54;100873.63;6170511;22;97167;-51
2023/03/17 02:57:02;;;;;;;1.20;0.93;;;;;;;8.47;50.52;100880.63;6170972;22;96573;-51
2023/03/17 02:59:28;;;;;;;1.43;1.00;;;;;;;8.49;50.40;100880.91;6170700;22;97104;-50
2023/03/17 03:01:54;;;;;;;1.50;1.27;;;;;;;8.50;50.33;100881.66;6171825;22;97011;-51
2023/03/17 03:04:20;;;;;;;4.13;1.33;;;;;;;8.52;50.63;100884.72;6170835;22;96897;-52
2023/03/17 03:06:46;;;;;;;1.50;1.40;;;;;;;8.54;50.40;100888.47;6171129;22;97214;-50
2023/03/17 03:09:12;;;;;;;1.80;1.13;;;;;;;8.55;50.29;100884.50;6169579;22;97539;-51
2023/03/17 03:11:38;;;;;;;1.50;1.40;;;;;;;8.58;50.42;100882.81;6170645;22;97044;-50
2023/03/17 03:14:04;;;;;;;1.90;1.10;;;;;;;8.56;50.51;100886.00;6171082;22;96932;-51
2023/03/17 03:16:30;;;;;;;1.17;1.07;;;;;;;8.58;50.33;100878.09;6171503;22;96835;-51
2023/03/17 03:18:55;;;;;;;1.40;1.30;;;;;;;8.56;50.33;100869.56;6169804;22;97281;-54
2023/03/17 03:21:21;;;;;;;1.27;1.17;;;;;;;8.54;50.46;100876.75;6170678;22;96684;-51
2023/03/17 03:23:46;;;;;;;4.17;1.47;;;;;;;8.54;50.41;100860.31;6171290;22;97381;-52
2023/03/17 03:26:12;;;;;;;1.50;1.20;;;;;;;8.50;50.72;100860.47;6171207;22;96725;-51
2023/03/17 03:28:37;;;;;;;1.87;1.33;;;;;;;8.51;50.76;100851.03;6170067;22;97016;-51
2023/03/17 03:31:02;;;;;;;1.37;1.20;;;;;;;8.51;50.60;100839.31;6170557;22;109558;-51
2023/03/17 03:33:28;;;;;;;1.20;1.10;;;;;;;8.52;50.60;100852.53;6170715;22;97208;-51
2023/03/17 03:35:54;;;;;;;1.50;1.40;;;;;;;8.51;50.80;100858.50;6169904;22;97089;-51
2023/03/17 03:38:19;;;;;;;1.10;1.10;;;;;;;8.51;50.80;100845.56;6169981;22;97146;-51
2023/03/17 03:40:45;;;;;;;1.50;1.40;;;;;;;8.51;50.81;100840.06;6170374;22;97743;-51
2023/03/17 03:43:10;;;;;;;1.47;1.00;;;;;;;8.49;50.75;100845.28;6171072;22;96491;-51
2023/03/17 03:45:36;;;;;;;1.33;1.23;;;;;;;8.48;50.44;100843.75;6170751;22;96879;-51
2023/03/17 03:48:01;;;;;;;1.67;1.20;;;;;;;8.48;50.73;100856.69;6170005;22;96983;-51
2023/03/17 03:50:27;;;;;;;1.30;1.20;;;;;;;8.45;50.77;100847.47;6170384;22;96561;-51
2023/03/17 03:52:52;;;;;;;1.17;1.07;;;;;;;8.39;50.80;100848.59;6170912;22;96542;-50
2023/03/17 03:55:18;;;;;;;1.00;1.00;;;;;;;8.34;50.78;100847.25;6170655;22;97284;-51
2023/03/17 03:57:43;;;;;;;1.10;1.00;;;;;;;8.32;50.85;100846.97;6169605;22;96925;-53
2023/03/17 04:00:10;;;;;;;1.47;1.37;;;;;;;8.29;50.76;100831.47;6170205;22;96930;-51
2023/03/17 04:02:35;;;;;;;0.80;0.80;;;;;;;8.26;51.25;100829.66;6170588;22;96587;-52
2023/03/17 04:05:01;;;;;;;1.00;1.00;;;;;;;8.22;51.18;100823.56;6170937;22;96888;-51
2023/03/17 04:07:27;;;;;;;1.13;1.07;;;;;;;8.19;51.05;100824.53;6170982;22;97231;-51
2023/03/17 04:09:52;;;;;;;0.90;0.90;;;;;;;8.13;51.00;100810.72;6171152;22;97596;-51
2023/03/17 04:12:18;;;;;;;1.20;1.20;;;;;;;8.08;51.25;100802.41;6172179;22;96625;-52
2023/03/17 04:14:44;;;;;;;1.10;1.00;;;;;;;8.03;51.03;100794.84;6172614;22;97094;-50
2023/03/17 04:17:13;;;;;;;0.80;0.70;;;;;;;7.94;51.35;100797.66;6170869;22;97444;-51
2023/03/17 04:19:39;;;;;;;1.23;1.17;;;;;;;7.87;51.23;100807.00;6170204;22;96540;-51
2023/03/17 04:22:05;;;;;;;1.20;1.10;;;;;;;7.87;51.52;100806.25;6169309;22;97021;-51
2023/03/17 04:24:31;;;;;;;1.07;0.97;;;;;;;7.85;51.56;100797.75;6172063;22;96904;-51
2023/03/17 04:26:56;;;;;;;1.30;1.20;;;;;;;7.82;51.53;100806.91;6171731;22;97342;-51
2023/03/17 04:29:21;;;;;;;1.43;1.00;;;;;;;7.80;51.51;100796.41;6169507;22;97134;-51
2023/03/17 04:31:47;;;;;;;1.20;1.20;;;;;;;7.78;51.71;100804.34;6171686;22;96584;-51
2023/03/17 04:34:15;;;;;;;1.30;1.20;;;;;;;7.75;51.59;100802.56;6170824;22;100604;-51
2023/03/17 04:36:41;;;;;;;1.70;1.60;;;;;;;7.74;51.52;100811.22;6171734;22;97132;-51
2023/03/17 04:39:07;;;;;;;1.73;1.30;;;;;;;7.74;51.78;100805.75;6169525;22;97231;-53
2023/03/17 04:41:33;;;;;;;1.07;0.90;;;;;;;7.74;51.59;100811.97;6171614;22;96526;-51
2023/03/17 04:43:59;;;;;;;1.40;1.10;;;;;;;7.71;51.64;100809.44;6172496;22;96840;-52
2023/03/17 04:46:24;;;;;;;1.50;1.40;;;;;;;7.64;51.53;100807.03;6170684;22;96887;-52
2023/03/17 04:48:49;;;;;;;1.20;1.13;;;;;;;7.64;51.69;100807.03;6171265;22;97396;-52
2023/03/17 04:51:15;;;;;;;2.93;1.57;;;;;;;7.61;52.13;100805.22;6171369;22;97014;-51
2023/03/17 04:53:41;;;;;;;1.00;1.00;;;;;;;7.58;52.04;100810.41;6170000;22;97013;-52
2023/03/17 04:56:07;;;;;;;1.47;1.30;;;;;;;7.52;52.01;100812.28;6171519;22;96836;-51
2023/03/17 04:58:32;;;;;;;1.63;1.33;;;;;;;7.54;52.19;100809.09;6171228;22;97218;-51
2023/03/17 05:00:57;;;;;;;1.23;1.13;;;;;;;7.53;51.72;100800.09;6171586;22;102669;-50
2023/03/17 05:03:24;;;;;;;1.60;1.40;;;;;;;7.51;52.17;100799.09;6171906;22;97179;-52
2023/03/17 05:05:50;;;;;;;1.53;1.43;;;;;;;7.49;52.07;100802.25;6171812;22;97450;-51
2023/03/17 05:08:15;;;;;;;4.50;1.27;;;;;;;7.50;52.08;100803.03;6171350;22;96973;-51
2023/03/17 05:10:41;;;;;;;1.87;1.10;;;;;;;7.42;51.96;100799.13;6170604;22;96851;-51
2023/03/17 05:13:06;;;;;;;1.37;1.27;;;;;;;7.39;51.94;100800.81;6171642;22;97278;-51
2023/03/17 05:15:32;;;;;;;1.40;1.00;;;;;;;7.36;51.92;100792.81;6170444;22;97230;-50
2023/03/17 05:17:57;;;;;;;1.83;1.10;;;;;;;7.32;52.34;100782.00;6170063;22;97192;-51
2023/03/17 05:20:22;;;;;;;1.17;1.10;;;;;;;7.30;52.07;100786.44;6171523;22;97094;-51
2023/03/17 05:22:48;;;;;;;1.50;1.40;;;;;;;7.28;52.19;100781.44;6172045;22;97327;-50
2023/03/17 05:25:13;;;;;;;1.00;1.00;;;;;;;7.27;52.33;100788.13;6171670;22;100229;-53
2023/03/17 05:27:38;;;;;;;2.37;1.50;;;;;;;7.28;52.26;100791.63;6169673;22;97033;-51
2023/03/17 05:30:04;;;;;;;1.37;1.20;;;;;;;7.28;52.65;100797.09;6171583;22;96845;-51
2023/03/17 05:32:30;;;;;;;1.00;0.87;;;;;;;7.24;52.35;100791.81;6171624;22;96843;-52
2023/03/17 05:34:56;;;;;;;1.40;1.30;;;;;;;7.26;52.32;100786.63;6169621;22;97238;-52
2023/03/17 05:37:22;;;;;;;1.37;1.30;;;;;;;7.24;52.36;100791.03;6170185;22;96810;-53
2023/03/17 05:39:47;;;;;;;1.67;1.57;;;;;;;7.24;52.42;100791.81;6171434;22;97590;-51
2023/03/17 05:42:12;;;;;;;3.57;1.80;;;;;;;7.25;52.69;100785.09;6171624;22;100772;-51
2023/03/17 05:44:38;;;;;;;1.57;1.47;;;;;;;7.23;52.55;100776.59;6171666;22;97220;-51
2023/03/17 05:47:04;;;;;;;0.97;0.97;;;;;;;7.29;52.54;100779.47;6170637;22;97428;-51
2023/03/17 05:49:29;;;;;;;1.50;1.40;;;;;;;7.28;52.54;100780.66;6170965;22;96652;-50
2023/03/17 05:51:55;;;;;;;1.33;1.23;;;;;;;7.27;52.25;100774.44;6144655;22;97165;-51
2023/03/17 05:54:21;;;;;;;1.40;1.27;;;;;;;7.25;52.24;100770.69;6170596;22;96540;-50
2023/03/17 05:56:46;;;;;;;2.13;1.70;;;;;;;7.24;52.59;100769.91;6170905;22;97091;-53
2023/03/17 05:59:14;;;;;;;1.90;1.70;;;;;;;7.24;52.38;100774.63;6170277;22;96537;-51
2023/03/17 06:01:40;;;;;;;1.37;1.27;;;;;;;7.21;52.57;100767.34;6171495;22;96504;-52
2023/03/17 06:04:06;;;;;;;1.90;1.70;;;;;;;7.17;52.36;100781.19;6171426;22;97265;-51
2023/03/17 06:06:32;;;;;;;1.80;1.70;;;;;;;7.19;52.56;100775.25;6170723;22;96689;-51
2023/03/17 06:08:58;;;;;;;1.50;1.13;;;;;;;7.20;52.59;100774.03;6171154;22;96625;-51
2023/03/17 06:11:24;;;;;;;1.87;1.13;;;;;;;7.18;52.63;100765.56;6170833;22;96857;-51
2023/03/17 06:13:49;;;;;;;0.87;0.87;;;;;;;7.19;52.90;100764.31;6171152;22;96805;-51
2023/03/17 06:16:15;;;;;;;1.67;1.57;;;;;;;7.16;52.87;100768.75;6144555;22;97312;-51
2023/03/17 06:18:40;;;;;;;1.40;1.30;;;;;;;7.14;52.81;100776.66;6171395;22;96848;-51
2023/03/17 06:21:06;;;;;;;1.60;1.50;;;;;;;7.16;53.15;100763.28;6170889;22;96563;-53
2023/03/17 06:23:31;;;;;;;1.37;1.27;;;;;;;7.17;52.78;100762.06;6170836;22;96760;-50
2023/03/17 06:25:56;;;;;;;1.40;1.30;;;;;;;7.21;52.73;100765.38;6171109;22;100688;-51
2023/03/17 06:28:22;;;;;;;8.20;1.30;;;;;;;7.19;52.86;100767.81;6170177;22;96556;-51
2023/03/17 06:30:48;;;;;;;1.77;1.37;;;;;;;7.19;52.68;100767.03;6171076;22;96824;-51
2023/03/17 06:33:14;;;;;;;5.93;1.47;;;;;;;7.20;52.81;100763.88;6171194;22;97094;-51
2023/03/17 06:35:40;;;;;;;1.30;1.20;;;;;;;7.19;52.68;100773.28;6171051;22;97369;-51
2023/03/17 06:38:05;;;;;;;1.60;1.50;;;;;;;7.20;53.09;100774.81;6171121;22;97021;-50
2023/03/17 06:40:32;;;;;;;1.27;1.20;;;;;;;7.24;52.78;100772.66;6171251;22;97038;-51
2023/03/17 06:42:58;;;;;;;1.20;1.10;;;;;;;7.27;52.65;100770.97;6170961;22;97253;-51
2023/03/17 06:45:23;;;;;;;0.97;0.90;;;;;;;7.30;52.65;100759.84;6170472;22;96610;-51
2023/03/17 06:47:49;;;;;;;1.70;1.23;;;;;;;7.31;52.79;100764.09;6169923;22;97325;-51
2023/03/17 06:50:15;;;;;;;1.60;1.50;;;;;;;7.34;52.99;100762.38;6171505;22;97081;-51
2023/03/17 06:52:40;;;;;;;0.97;0.97;;;;;;;7.36;53.11;100765.44;6169067;22;96932;-50
2023/03/17 06:55:06;;;;;;;1.57;1.47;;;;;;;7.40;52.74;100771.47;6170402;22;107840;-51
2023/03/17 06:57:32;;;;;;;1.40;1.30;;;;;;;7.46;53.02;100770.38;6171105;22;97288;-52
2023/03/17 06:59:57;;;;;;;1.50;1.30;;;;;;;7.51;52.82;100775.19;6170951;22;96484;-50
2023/03/17 07:02:23;;;;;;;1.57;1.27;;;;;;;7.53;52.69;100774.72;6170483;22;97078;-51
2023/03/17 07:04:49;;;;;;;1.17;1.07;;;;;;;7.61;53.01;100775.88;6171175;22;97105;-51
2023/03/17 07:07:15;;;;;;;1.30;1.30;;;;;;;7.67;53.04;100773.22;6170845;22;96788;-51
2023/03/17 07:09:40;;;;;;;1.70;1.60;;;;;;;7.71;52.52;100769.09;6170266;22;97026;-52
2023/03/17 07:12:07;;;;;;;1.63;0.90;;;;;;;7.73;52.87;100765.91;6170159;22;97377;-51
2023/03/17 07:14:34;;;;;;;1.23;1.13;;;;;;;7.79;53.03;100769.50;6142996;22;97273;-51
2023/03/17 07:17:00;;;;;;;1.07;0.90;;;;;;;7.80;52.84;100777.22;6170805;22;97316;-51
2023/03/17 07:19:26;;;;;;;1.30;1.20;;;;;;;7.87;53.16;100771.41;6170533;22;97063;-51
2023/03/17 07:21:54;;;;;;;1.40;1.30;;;;;;;7.96;52.83;100767.81;6170915;22;97743;-51
2023/03/17 07:24:20;;;;;;;1.30;1.20;;;;;;;8.05;52.90;100770.47;6170789;22;96547;-51
2023/03/17 07:26:46;;;;;;;3.27;1.23;;;;;;;8.17;52.78;100769.41;6170261;22;97266;-50
2023/03/17 07:29:11;;;;;;;1.57;1.47;;;;;;;8.26;52.68;100769.34;6170905;22;97406;-51
2023/03/17 07:31:37;;;;;;;1.90;1.70;;;;;;;8.40;52.65;100778.81;6170120;22;97249;-51
2023/03/17 07:34:03;;;;;;;1.93;1.63;;;;;;;8.55;52.79;100768.59;6171074;22;97329;-51
2023/03/17 07:36:29;;;;;;;1.60;1.50;;;;;;;8.71;52.49;100768.09;6169596;22;96795;-52
2023/03/17 07:38:54;;;;;;;1.70;1.60;;;;;;;8.88;52.30;100769.84;6169505;22;97695;-50
2023/03/17 07:41:20;;;;;;;1.90;1.60;;;;;;;8.98;52.13;100767.72;6171812;22;96858;-52
2023/03/17 07:43:46;;;;;;;3.83;2.13;;;;;;;9.10;52.09;100757.66;6144976;22;97633;-51
2023/03/17 07:46:12;;;;;;;3.07;1.47;;;;;;;9.19;52.00;100752.03;6172282;22;97105;-50
2023/03/17 07:48:40;;;;;;;3.03;1.73;;;;;;;9.29;51.87;100753.41;6171182;22;96526;-51
2023/03/17 07:51:11;;;;;;;2.70;1.53;;;;;;;9.42;51.84;100762.81;6171631;22;97054;-52
2023/03/17 07:53:36;;;;;;;1.13;1.10;;;;;;;9.53;51.55;100753.94;6171470;22;97129;-52
2023/03/17 07:56:02;;;;;;;2.07;1.43;;;;;;;9.64;51.67;100752.09;6172350;22;96766;-51
2023/03/17 07:58:27;;;;;;;1.50;1.40;;;;;;;9.75;51.60;100748.69;6171022;22;96720;-50
2023/03/17 08:00:53;;;;;;;1.67;1.57;;;;;;;9.88;51.39;100743.59;6168374;22;108163;-51
2023/03/17 08:03:19;;;;;;;1.83;1.73;;;;;;;10.03;51.26;100754.47;6171670;22;97115;-51
2023/03/17 08:05:44;;;;;;;1.40;1.30;;;;;;;10.12;51.29;100760.59;6171744;22;96963;-51
2023/03/17 08:08:11;;;;;;;1.70;1.60;;;;;;;10.27;51.16;100763.22;6171420;22;97085;-51
2023/03/17 08:10:36;;;;;;;1.73;1.63;;;;;;;10.39;50.93;100757.34;6170466;22;97280;-51
2023/03/17 08:13:02;;;;;;;2.40;1.60;;;;;;;10.51;50.96;100755.41;6171886;22;97179;-51
2023/03/17 08:15:29;;;;;;;1.80;1.70;;;;;;;10.63;50.77;100762.50;6171447;22;96780;-52
2023/03/17 08:17:55;;;;;;;4.50;1.80;;;;;;;10.74;50.57;100759.06;6171650;22;97098;-51
2023/03/17 08:20:20;;;;;;;1.63;1.50;;;;;;;10.86;50.59;100753.13;6171356;22;97818;-51
2023/03/17 08:22:46;;;;;;;1.50;1.40;;;;;;;10.97;50.47;100758.72;6170636;22;97010;-51
2023/03/17 08:25:11;;;;;;;1.70;1.60;;;;;;;11.09;50.30;100756.78;6171240;22;96864;-51
2023/03/17 08:27:37;;;;;;;2.00;1.73;;;;;;;11.20;50.18;100759.59;6171058;22;96936;-51
2023/03/17 08:30:03;;;;;;;2.47;1.43;;;;;;;11.28;50.24;100747.59;6170966;22;97302;-51
2023/03/17 08:32:28;;;;;;;1.40;1.30;;;;;;;11.39;49.92;100755.16;6170955;22;97184;-52
2023/03/17 08:34:53;;;;;;;2.90;1.67;;;;;;;11.50;50.07;100766.22;6171715;22;96554;-51
2023/03/17 08:37:19;;;;;;;1.83;1.50;;;;;;;11.59;49.78;100768.75;6170840;22;96921;-50
2023/03/17 08:39:44;;;;;;;1.93;1.70;;;;;;;11.71;49.83;100764.81;6171241;22;97272;-52
2023/03/17 08:42:10;;;;;;;2.57;1.67;;;;;;;11.87;49.81;100766.09;6170516;22;111283;-51
2023/03/17 08:44:36;;;;;;;2.13;1.60;;;;;;;12.06;49.61;100760.88;6171275;22;96685;-51
2023/03/17 08:47:01;;;;;;;1.50;1.40;;;;;;;12.23;49.67;100745.81;6171332;22;96685;-51
2023/03/17 08:49:27;;;;;;;1.50;1.40;;;;;;;12.51;49.53;100743.84;6170692;22;97030;-51
2023/03/17 08:51:53;;;;;;;1.80;1.70;;;;;;;12.87;49.31;100746.78;6170219;22;97108;-51
2023/03/17 08:54:18;;;;;;;2.20;1.90;;;;;;;13.15;49.06;100747.50;6171244;22;97161;-51
2023/03/17 08:56:43;;;;;;;2.27;1.93;;;;;;;13.40;48.61;100741.63;6170912;22;99808;-51
2023/03/17 08:59:09;;;;;;;2.43;2.20;;;;;;;13.61;48.22;100741.28;6170455;22;108795;-51
2023/03/17 09:01:36;;;;;;;2.07;1.87;;;;;;;13.80;48.37;100742.91;6143631;22;96769;-51
2023/03/17 09:04:02;;;;;;;1.60;1.50;;;;;;;14.03;48.18;100735.97;6144351;22;96613;-53
2023/03/17 09:06:29;;;;;;;2.33;1.77;;;;;;;14.21;47.81;100726.28;6172312;22;96757;-52
2023/03/17 09:08:54;;;;;;;1.70;1.60;;;;;;;14.35;47.48;100724.44;6171216;22;97895;-51
2023/03/17 09:11:23;;;;;;;1.20;1.10;;;;;;;14.43;47.24;100723.34;6170965;22;96959;-51
2023/03/17 09:13:48;;;;;;;1.33;1.23;;;;;;;14.53;46.91;100726.50;6171152;22;97040;-53
2023/03/17 09:16:14;;;;;;;3.33;1.77;;;;;;;14.76;47.16;100723.03;6171605;22;97262;-51
2023/03/17 09:18:41;;;;;;;2.40;1.10;;;;;;;14.98;47.15;100716.50;6170783;22;97400;-50
2023/03/17 09:21:07;;;;;;;0.97;0.97;;;;;;;15.11;46.77;100719.38;6171655;22;96902;-51
2023/03/17 09:23:33;;;;;;;1.23;1.00;;;;;;;15.32;46.43;100719.59;6171884;22;96836;-52
2023/03/17 09:25:59;;;;;;;1.33;1.23;;;;;;;15.48;46.32;100722.19;6171800;22;96958;-50
2023/03/17 09:28:25;;;;;;;1.37;1.27;;;;;;;15.67;46.30;100713.88;6170866;22;97256;-52
2023/03/17 09:30:50;;;;;;;0.80;0.80;;;;;;;15.83;45.75;100715.66;6171954;22;97232;-51
2023/03/17 09:33:16;;;;;;;1.10;1.10;;;;;;;15.92;45.32;100725.63;6171682;22;96690;-51
2023/03/17 09:35:42;;;;;;;1.93;1.07;;;;;;;16.03;45.44;100717.84;6170290;22;97377;-51
2023/03/17 09:38:07;;;;;;;1.47;1.37;;;;;;;16.14;45.28;100714.16;6170557;22;97156;-52
2023/03/17 09:40:46;;;;;;;1.13;1.03;;;;;;;16.25;43.87;100716.75;6170877;22;96705;-50
2023/03/17 09:43:41;;;;;;;1.43;1.27;;;;;;;16.37;42.47;100709.72;6171715;22;96621;-51
2023/03/17 09:46:25;;;;;;;1.30;1.20;;;;;;;16.43;43.75;100716.69;6171318;22;96917;-54
2023/03/17 09:49:02;;;;;;;1.00;0.90;;;;;;;16.38;43.88;100706.41;6170547;22;97866;-50
2023/03/17 09:51:31;;;;;;;0.90;0.90;;;;;;;16.43;44.05;100711.13;6169751;22;96563;-52
2023/03/17 09:54:09;;;;;;;1.10;1.00;;;;;;;16.53;42.49;100716.31;6171104;22;96743;-51
2023/03/17 09:56:38;;;;;;;1.10;1.10;;;;;;;16.54;44.17;100718.53;6170606;22;96698;-52
2023/03/17 09:59:23;;;;;;;1.40;0.97;;;;;;;16.53;43.74;100713.53;6170566;22;97287;-51
2023/03/17 10:01:49;;;;;;;1.00;1.00;;;;;;;16.53;44.26;100716.31;6171296;22;96514;-51
2023/03/17 10:04:15;;;;;;;1.03;1.03;;;;;;;16.60;44.21;100724.03;6168562;22;96987;-50
2023/03/17 10:06:45;;;;;;;1.17;1.07;;;;;;;16.68;44.12;100724.88;6170180;22;97494;-51
2023/03/17 10:09:31;;;;;;;1.17;1.13;;;;;;;16.76;42.52;100731.28;6171477;22;96975;-51
2023/03/17 10:12:23;;;;;;;1.17;1.10;;;;;;;16.79;40.96;100736.53;6141260;22;97613;-51
2023/03/17 10:15:02;;;;;;;1.47;1.37;;;;;;;16.79;42.17;100730.97;6071564;22;97080;-50
2023/03/17 10:17:32;;;;;;;2.13;1.60;;;;;;;16.86;43.24;100730.31;6140986;22;96991;-52
2023/03/17 10:20:11;;;;;;;1.50;1.40;;;;;;;16.83;41.80;100727.88;6140637;22;97484;-50
2023/03/17 10:22:43;;;;;;;2.20;1.20;;;;;;;16.85;42.21;100722.53;6141345;22;97115;-51
2023/03/17 10:25:20;;;;;;;1.97;1.70;;;;;;;16.82;38.71;100716.00;6141060;22;96780;-51
2023/03/17 10:28:00;;;;;;;1.30;1.20;;;;;;;16.78;41.78;100723.16;6140834;22;97073;-51
2023/03/17 10:30:26;;;;;;;1.17;1.07;;;;;;;16.86;43.39;100715.69;6140659;22;97239;-51
2023/03/17 10:32:56;;;;;;;1.20;1.10;;;;;;;16.91;43.13;100723.91;6141071;22;97364;-51
2023/03/17 10:35:23;;;;;;;0.87;0.87;;;;;;;16.95;43.21;100735.47;6141671;22;97102;-50
2023/03/17 10:37:48;;;;;;;1.53;1.43;;;;;;;17.00;43.02;100722.75;6140155;22;96969;-51
2023/03/17 10:40:29;;;;;;;1.27;1.17;;;;;;;17.03;41.35;100719.66;6140429;22;106275;-51
2023/03/17 10:43:02;;;;;;;1.70;1.17;;;;;;;17.10;42.18;100729.38;6140385;22;96639;-51
2023/03/17 10:45:31;;;;;;;0.93;0.93;;;;;;;17.09;42.59;100713.97;6141363;22;96945;-50
2023/03/17 10:47:58;;;;;;;1.73;1.17;;;;;;;17.16;42.84;100719.66;6140680;22;97338;-52
2023/03/17 10:50:30;;;;;;;1.20;1.00;;;;;;;17.19;39.90;100706.69;6140530;22;97017;-50
2023/03/17 10:53:26;;;;;;;2.27;1.30;;;;;;;17.22;40.40;100716.75;6140761;22;97037;-50
2023/03/17 10:56:05;;;;;;;1.20;1.10;;;;;;;17.35;42.26;100724.31;6128124;22;96787;-50
2023/03/17 10:58:37;;;;;;;1.40;1.30;;;;;;;17.42;41.60;100732.75;6141027;22;97724;-51
2023/03/17 11:01:07;;;;;;;1.30;1.20;;;;;;;17.45;41.91;100714.97;6140558;22;97306;-50
2023/03/17 11:03:37;;;;;;;2.50;1.67;;;;;;;17.60;41.69;100712.41;6140864;22;96677;-50
2023/03/17 11:06:43;;;;;;;1.03;0.90;;;;;;;17.77;40.28;100718.34;6139458;22;96603;-52
2023/03/17 11:09:15;;;;;;;1.37;1.13;;;;;;;17.91;41.77;100725.34;6135246;22;96611;-52
2023/03/17 11:11:47;;;;;;;1.13;1.00;;;;;;;18.01;41.28;100717.28;6168910;22;97897;-51
2023/03/17 11:14:17;;;;;;;2.47;1.23;;;;;;;18.09;41.20;100709.75;6171924;22;97064;-51
2023/03/17 11:16:57;;;;;;;2.03;1.53;;;;;;;18.20;40.14;100700.38;6171648;22;96967;-50
2023/03/17 11:19:46;;;;;;;2.30;1.20;;;;;;;18.33;39.03;100700.28;6170963;22;96696;-51
2023/03/17 11:22:20;;;;;;;1.63;1.53;;;;;;;18.51;41.11;100691.75;6171465;22;96611;-52
2023/03/17 11:25:14;;;;;;;2.80;1.60;;;;;;;18.82;38.91;100689.91;6171636;22;96647;-50
2023/03/17 11:27:47;;;;;;;1.73;1.10;;;;;;;18.98;39.37;100696.31;6166357;22;97456;-52
2023/03/17 11:30:21;;;;;;;1.77;1.00;;;;;;;19.09;40.06;100682.78;6172053;22;96883;-50
2023/03/17 11:33:11;;;;;;;1.63;1.30;;;;;;;19.21;38.08;100686.75;6172381;22;96621;-51
2023/03/17 11:36:02;;;;;;;1.33;1.23;;;;;;;19.27;39.26;100695.69;6172149;22;97647;-51